Time;durP1;ratioP1;P1;durP2;ratioP2;P2;SDS_P1;SDS_P2;PMS_P1;PMS_P2;Temp;Humidity;BMP_temperature;BMP_pressure;BME280_temperature;BME280_humidity;BME280_pressure;Samples;Min_cycle;Max_cycle;Signal;HPM_P1;HPM_P2
2022/10/07 00:00:02;;;;;;;5.65;2.75;;;;;;;12.37;93.01;150761.09;1686813;85;21214;-66
2022/10/07 00:02:31;;;;;;;4.95;2.70;;;;;;;12.32;93.17;150750.72;1687057;85;21125;-67
2022/10/07 00:04:57;;;;;;;10.00;2.80;;;;;;;12.28;93.38;150740.33;1686678;82;21065;-68
2022/10/07 00:07:24;;;;;;;5.78;2.52;;;;;;;12.25;93.73;150731.22;1679601;84;21190;-67
2022/10/07 00:09:51;;;;;;;5.67;2.92;;;;;;;12.23;93.91;150727.30;1665195;86;21062;-68
2022/10/07 00:12:18;;;;;;;2.95;2.15;;;;;;;12.20;94.35;150718.23;1665085;86;21834;-68
2022/10/07 00:14:45;;;;;;;6.55;2.80;;;;;;;12.17;94.99;150711.72;1665033;86;21607;-67
2022/10/07 00:17:12;;;;;;;7.28;2.42;;;;;;;12.13;95.84;150701.34;1665319;86;21065;-67
2022/10/07 00:19:39;;;;;;;4.28;2.55;;;;;;;12.07;96.12;150685.77;1665068;86;21120;-67
2022/10/07 00:22:06;;;;;;;3.55;2.40;;;;;;;12.02;96.26;150675.33;1665351;86;21080;-68
2022/10/07 00:24:33;;;;;;;4.67;2.58;;;;;;;12.00;96.72;150668.81;1665615;86;21554;-68
2022/10/07 00:27:01;;;;;;;4.75;2.52;;;;;;;11.95;97.42;150657.11;1665045;86;21077;-67
2022/10/07 00:29:28;;;;;;;4.92;3.12;;;;;;;11.90;97.73;150644.13;1665233;86;21053;-68
2022/10/07 00:31:54;;;;;;;4.15;2.55;;;;;;;11.85;98.27;150632.44;1666047;86;21111;-68
2022/10/07 00:34:21;;;;;;;3.62;2.65;;;;;;;11.82;98.41;150624.64;1667028;84;21125;-67
2022/10/07 00:36:51;;;;;;;6.62;2.83;;;;;;;11.82;99.18;150623.31;1666730;86;21256;-67
2022/10/07 00:39:18;;;;;;;7.22;2.80;;;;;;;11.81;99.34;150620.72;1666891;86;21081;-66
2022/10/07 00:41:50;;;;;;;5.72;2.33;;;;;;;11.81;99.61;150620.72;1667283;83;21044;-67
2022/10/07 00:44:44;;;;;;;5.25;2.95;;;;;;;11.81;100.00;150620.72;1666458;86;21068;-68
2022/10/07 00:47:26;;;;;;;10.68;3.35;;;;;;;11.80;100.00;150619.45;1667220;86;21054;-67
2022/10/07 00:50:16;;;;;;;10.18;3.33;;;;;;;11.80;100.00;150618.12;1667078;84;21208;-67
2022/10/07 00:52:52;;;;;;;8.88;3.55;;;;;;;11.79;100.00;150615.53;1666946;84;21109;-68
2022/10/07 00:55:22;;;;;;;7.47;3.20;;;;;;;11.76;100.00;150609.06;1659375;86;21008;-68
2022/10/07 00:57:49;;;;;;;7.17;4.12;;;;;;;11.75;100.00;150607.75;1658716;86;21080;-59
2022/10/07 01:00:16;;;;;;;4.47;3.25;;;;;;;11.75;100.00;150606.47;1658810;86;21052;-59
2022/10/07 01:02:47;;;;;;;9.05;3.33;;;;;;;11.74;100.00;150605.16;1658369;86;21509;-59
2022/10/07 01:05:14;;;;;;;11.30;4.17;;;;;;;11.75;100.00;150607.75;1658010;86;21502;-59
2022/10/07 01:07:41;;;;;;;10.23;3.30;;;;;;;11.77;99.75;150611.66;1657997;86;21062;-68
2022/10/07 01:10:10;;;;;;;7.72;3.47;;;;;;;11.80;99.28;150619.45;1658537;86;21467;-66
2022/10/07 01:13:04;;;;;;;8.25;3.92;;;;;;;11.82;98.88;150623.31;1658263;86;21590;-67
2022/10/07 01:15:39;;;;;;;10.55;3.55;;;;;;;11.84;98.48;150628.56;1658247;86;22795;-58
2022/10/07 01:18:16;;;;;;;10.95;3.40;;;;;;;11.86;97.93;150633.75;1630734;87;21013;-58
2022/10/07 01:21:14;;;;;;;6.20;3.35;;;;;;;11.88;97.43;150638.94;1650676;86;21042;-59
2022/10/07 01:23:54;;;;;;;7.17;3.40;;;;;;;11.88;96.20;150638.94;1604076;86;21167;-58
2022/10/07 01:26:51;;;;;;;6.40;3.30;;;;;;;11.91;95.42;150646.73;1650117;86;21085;-58
2022/10/07 01:29:35;;;;;;;5.17;3.30;;;;;;;11.88;94.85;150638.94;1651478;86;21357;-58
2022/10/07 01:32:19;;;;;;;6.55;3.62;;;;;;;11.85;94.35;150631.16;1662534;83;21549;-58
2022/10/07 01:34:46;;;;;;;5.85;3.22;;;;;;;11.84;93.69;150628.56;1683546;83;21062;-58
2022/10/07 01:37:15;;;;;;;5.83;3.52;;;;;;;11.83;93.11;150625.97;1684081;84;21122;-59
2022/10/07 01:39:49;;;;;;;6.67;3.50;;;;;;;11.83;92.46;150625.97;1683792;83;21559;-57
2022/10/07 01:42:16;;;;;;;12.37;3.83;;;;;;;11.81;92.17;150622.05;1684308;85;21769;-67
2022/10/07 01:44:44;;;;;;;11.05;3.70;;;;;;;11.77;91.94;150610.34;1684017;85;21272;-67
2022/10/07 01:47:11;;;;;;;6.17;3.55;;;;;;;11.73;91.78;150602.56;1684114;85;21512;-67
2022/10/07 01:49:39;;;;;;;5.67;3.60;;;;;;;11.68;91.66;150589.58;1683909;85;21045;-67
2022/10/07 01:52:16;;;;;;;4.95;3.47;;;;;;;11.68;91.46;150588.25;1662330;85;21093;-68
2022/10/07 01:55:21;;;;;;;6.40;3.27;;;;;;;11.65;91.33;150580.47;1660566;85;21887;-67
2022/10/07 01:58:19;;;;;;;4.57;3.17;;;;;;;11.61;91.11;150571.41;1661650;85;21557;-67
2022/10/07 02:00:49;;;;;;;7.60;3.12;;;;;;;11.57;90.94;150560.98;1661916;85;21619;-66
2022/10/07 02:03:51;;;;;;;4.40;2.50;;;;;;;11.53;90.62;150551.94;1662174;84;21064;-69
2022/10/07 02:06:27;;;;;;;6.85;3.02;;;;;;;11.54;90.34;150553.20;1661806;85;21526;-68
2022/10/07 02:08:54;;;;;;;8.83;3.35;;;;;;;11.55;89.82;150555.80;1695497;84;21131;-68
2022/10/07 02:11:29;;;;;;;7.28;3.25;;;;;;;11.57;89.13;150560.98;1697135;84;21047;-68
2022/10/07 02:14:22;;;;;;;8.05;3.12;;;;;;;11.59;88.73;150566.17;1697293;84;21579;-68
2022/10/07 02:16:59;;;;;;;6.78;3.10;;;;;;;11.58;88.27;150563.58;1696158;83;21125;-67
2022/10/07 02:19:30;;;;;;;6.50;3.12;;;;;;;11.56;87.89;150558.39;1697806;83;21098;-68
2022/10/07 02:22:00;;;;;;;7.45;3.30;;;;;;;11.56;87.15;150558.39;1696923;84;21271;-67
2022/10/07 02:24:29;;;;;;;5.28;3.10;;;;;;;11.57;86.38;150562.31;1668265;84;21026;-68
2022/10/07 02:26:59;;;;;;;4.30;2.70;;;;;;;11.61;85.65;150571.41;1697000;84;21125;-67
2022/10/07 02:29:27;;;;;;;3.75;2.67;;;;;;;11.64;85.02;150579.20;1668129;84;21685;-67
2022/10/07 02:31:55;;;;;;;4.83;3.00;;;;;;;11.68;84.33;150588.25;1683730;84;21173;-67
2022/10/07 02:34:22;;;;;;;4.70;3.10;;;;;;;11.71;83.68;150597.38;1610202;86;21809;-68
2022/10/07 02:36:57;;;;;;;5.70;2.83;;;;;;;11.77;83.20;150610.34;1656082;86;21087;-67
2022/10/07 02:39:27;;;;;;;8.05;3.30;;;;;;;11.80;82.53;150618.12;1656698;86;21044;-67
2022/10/07 02:42:03;;;;;;;14.73;3.92;;;;;;;11.81;82.12;150620.72;1656507;86;21051;-67
2022/10/07 02:44:36;;;;;;;6.60;3.75;;;;;;;11.82;81.82;150623.31;1656802;86;21023;-68
2022/10/07 02:47:35;;;;;;;5.30;3.17;;;;;;;11.79;81.68;150615.53;1656328;86;22117;-68
2022/10/07 02:50:05;;;;;;;7.50;3.50;;;;;;;11.72;81.68;150598.69;1656484;86;21052;-67
2022/10/07 02:52:32;;;;;;;5.42;3.42;;;;;;;11.65;81.61;150581.80;1656670;85;22131;-67
2022/10/07 02:55:13;;;;;;;9.18;4.03;;;;;;;11.61;81.47;150571.41;1666417;84;21077;-69
2022/10/07 02:57:44;;;;;;;9.38;3.52;;;;;;;11.63;81.28;150576.61;1737186;82;21107;-67
2022/10/07 03:00:11;;;;;;;8.73;3.55;;;;;;;11.64;81.09;150577.88;1737950;82;21424;-67
2022/10/07 03:02:55;;;;;;;12.60;3.40;;;;;;;11.69;80.71;150592.17;1737260;82;21088;-66
2022/10/07 03:05:24;;;;;;;6.42;3.65;;;;;;;11.74;80.49;150603.87;1736825;82;21069;-67
2022/10/07 03:07:57;;;;;;;6.72;3.92;;;;;;;11.74;80.39;150605.16;1737113;82;21037;-68
2022/10/07 03:10:27;;;;;;;5.67;2.80;;;;;;;11.74;80.39;150605.16;1735633;82;21421;-67
2022/10/07 03:12:55;;;;;;;10.75;3.45;;;;;;;11.75;80.38;150607.75;1734565;82;21876;-67
2022/10/07 03:15:22;;;;;;;6.25;3.95;;;;;;;11.77;80.36;150610.34;1737620;82;22025;-67
2022/10/07 03:17:51;;;;;;;12.43;3.75;;;;;;;11.79;80.34;150615.53;1737223;82;21032;-68
2022/10/07 03:20:18;;;;;;;8.55;3.83;;;;;;;11.75;80.33;150607.75;1737362;82;21585;-67
2022/10/07 03:22:45;;;;;;;11.55;3.45;;;;;;;11.74;80.54;150603.87;1736989;82;21162;-68
2022/10/07 03:25:13;;;;;;;7.22;3.25;;;;;;;11.71;80.67;150597.38;1737306;82;21118;-67
2022/10/07 03:27:44;;;;;;;8.60;3.50;;;;;;;11.68;80.88;150588.25;1737404;82;21461;-67
2022/10/07 03:30:12;;;;;;;10.85;3.15;;;;;;;11.65;81.03;150580.47;1737904;82;20972;-68
2022/10/07 03:32:43;;;;;;;7.08;3.65;;;;;;;11.58;81.24;150563.58;1706225;82;21079;-68
2022/10/07 03:35:10;;;;;;;6.42;3.50;;;;;;;11.52;81.49;150548.02;1689461;83;21162;-68
2022/10/07 03:37:37;;;;;;;7.40;3.65;;;;;;;11.49;81.69;150540.22;1699371;84;21584;-67
2022/10/07 03:40:07;;;;;;;12.10;4.50;;;;;;;11.43;81.82;150525.94;1699346;84;21095;-68
2022/10/07 03:42:34;;;;;;;8.78;4.28;;;;;;;11.37;82.09;150511.64;1699818;84;21474;-68
2022/10/07 03:45:01;;;;;;;9.35;4.42;;;;;;;11.37;82.32;150511.64;1699064;84;21059;-68
2022/10/07 03:47:29;;;;;;;11.15;3.72;;;;;;;11.35;82.67;150506.44;1699030;83;21050;-68
2022/10/07 03:49:56;;;;;;;10.45;4.40;;;;;;;11.33;83.10;150501.27;1698955;84;21218;-68
2022/10/07 03:52:23;;;;;;;10.53;4.20;;;;;;;11.30;83.44;150493.47;1699408;83;21039;-68
2022/10/07 03:54:52;;;;;;;9.03;4.17;;;;;;;11.24;83.71;150477.91;1677510;84;21752;-68
2022/10/07 04:00:07;;;;;;;9.08;4.47;;;;;;;11.10;84.60;150442.86;1670937;85;21522;-67
2022/10/07 04:02:36;;;;;;;7.97;4.50;;;;;;;11.02;85.12;150423.37;1671878;84;21136;-68
2022/10/07 04:05:04;;;;;;;9.83;5.47;;;;;;;10.98;85.73;150413.00;1670704;85;21557;-68
2022/10/07 04:07:32;;;;;;;7.72;5.05;;;;;;;10.95;86.29;150405.22;1671167;84;20973;-68
2022/10/07 04:10:00;;;;;;;11.53;5.28;;;;;;;10.92;86.62;150397.41;1670655;85;21483;-68
2022/10/07 04:12:30;;;;;;;8.90;4.78;;;;;;;10.89;86.92;150392.22;1670431;85;21529;-66
2022/10/07 04:14:57;;;;;;;12.03;5.35;;;;;;;10.86;87.22;150384.44;1670530;85;21150;-67
2022/10/07 04:17:24;;;;;;;13.95;5.60;;;;;;;10.87;87.58;150385.75;1670037;85;21080;-67
2022/10/07 04:19:51;;;;;;;8.95;5.58;;;;;;;10.86;88.01;150383.16;1669788;85;21089;-67
2022/10/07 04:22:18;;;;;;;13.13;5.28;;;;;;;10.86;88.12;150384.44;1670193;85;21116;-67
2022/10/07 04:25:32;;;;;;;9.65;5.70;;;;;;;10.87;88.18;150385.75;1670265;85;21124;-67
2022/10/07 04:27:14;;;;;;;10.48;4.42;;;;;;;10.86;88.36;150384.44;1669407;85;21265;-68
2022/10/07 04:29:41;;;;;;;12.47;5.10;;;;;;;10.91;88.44;150394.80;1663695;85;21282;-67
2022/10/07 04:32:08;;;;;;;13.95;5.70;;;;;;;10.96;88.49;150409.09;1662067;86;21029;-68
2022/10/07 04:34:35;;;;;;;12.75;5.60;;;;;;;11.09;88.29;150440.28;1703641;83;21122;-67
2022/10/07 04:37:02;;;;;;;9.40;5.25;;;;;;;11.17;87.78;150462.34;1704094;84;21095;-68
2022/10/07 04:39:30;;;;;;;9.40;5.70;;;;;;;11.23;87.40;150475.31;1704486;84;21939;-68
2022/10/07 04:41:57;;;;;;;16.07;5.35;;;;;;;11.27;87.16;150487.02;1703908;84;21338;-66
2022/10/07 04:44:26;;;;;;;7.55;4.90;;;;;;;11.32;86.94;150499.98;1704793;83;21060;-67
2022/10/07 04:46:55;;;;;;;8.75;5.42;;;;;;;11.38;86.62;150514.23;1704038;83;21059;-66
2022/10/07 04:49:24;;;;;;;15.18;5.50;;;;;;;11.45;86.39;150532.44;1704067;83;21541;-68
2022/10/07 04:51:53;;;;;;;16.77;5.80;;;;;;;11.53;86.12;150550.61;1704074;83;21551;-68
2022/10/07 04:54:21;;;;;;;15.23;5.40;;;;;;;11.60;85.73;150568.78;1708624;83;20988;-67
2022/10/07 04:56:49;;;;;;;14.23;6.05;;;;;;;11.68;85.38;150589.58;1714987;82;21074;-68
2022/10/07 04:59:16;;;;;;;13.40;5.58;;;;;;;11.82;85.03;150623.31;1723879;82;20987;-67
2022/10/07 05:01:43;;;;;;;17.42;5.72;;;;;;;11.95;84.63;150657.11;1723423;82;21485;-68
2022/10/07 05:04:11;;;;;;;9.55;5.15;;;;;;;12.07;83.74;150687.03;1723325;83;22058;-66
2022/10/07 05:06:39;;;;;;;17.80;5.85;;;;;;;12.16;83.18;150710.44;1723655;81;21334;-68
2022/10/07 05:09:09;;;;;;;12.33;5.75;;;;;;;12.24;82.75;150729.89;1756278;81;21059;-68
2022/10/07 05:11:39;;;;;;;19.10;6.53;;;;;;;12.35;82.28;150755.91;1756311;80;20939;-58
2022/10/07 05:14:07;;;;;;;14.78;5.50;;;;;;;12.43;81.52;150776.67;1755706;80;21039;-59
2022/10/07 05:16:35;;;;;;;11.30;5.35;;;;;;;12.50;81.05;150794.91;1756497;81;21232;-58
2022/10/07 05:19:03;;;;;;;10.82;5.15;;;;;;;12.58;80.54;150814.34;1755965;80;21521;-58
2022/10/07 05:21:32;;;;;;;14.75;5.90;;;;;;;12.63;80.13;150826.06;1756380;81;21059;-59
2022/10/07 05:23:59;;;;;;;15.18;5.87;;;;;;;12.68;80.04;150839.05;1756114;81;21500;-59
2022/10/07 05:26:28;;;;;;;14.23;5.67;;;;;;;12.72;79.80;150849.48;1756868;81;21444;-68
2022/10/07 05:28:57;;;;;;;17.90;6.00;;;;;;;12.79;79.53;150867.66;1756033;80;21823;-67
2022/10/07 05:31:26;;;;;;;17.77;6.22;;;;;;;12.84;79.48;150880.66;1751068;80;21121;-68
2022/10/07 05:33:55;;;;;;;22.42;6.70;;;;;;;12.94;79.43;150904.08;1733197;82;21033;-68
2022/10/07 05:36:23;;;;;;;14.03;6.35;;;;;;;13.02;79.25;150924.86;1733728;82;20983;-67
2022/10/07 05:38:56;;;;;;;23.62;7.37;;;;;;;13.15;78.98;150958.67;1732130;82;21477;-68
2022/10/07 05:41:22;;;;;;;14.60;6.45;;;;;;;13.24;78.83;150979.45;1731944;82;21067;-67
2022/10/07 05:43:49;;;;;;;27.85;7.67;;;;;;;13.35;78.77;151006.77;1699203;82;21057;-68
2022/10/07 05:46:19;;;;;;;14.47;7.10;;;;;;;13.48;78.72;151039.31;1713752;82;21060;-67
2022/10/07 05:48:52;;;;;;;15.53;6.55;;;;;;;13.63;78.14;151077.03;1714659;83;20976;-68
2022/10/07 05:51:22;;;;;;;23.40;7.05;;;;;;;13.72;77.63;151101.73;1718929;83;21061;-69
2022/10/07 05:53:53;;;;;;;14.93;7.97;;;;;;;13.88;77.32;151140.77;1723349;83;21182;-68
2022/10/07 05:56:20;;;;;;;24.05;7.08;;;;;;;14.09;76.59;151192.81;1723441;81;21106;-68
2022/10/07 05:58:49;;;;;;;17.55;6.92;;;;;;;14.17;76.06;151214.92;1681269;83;21602;-66
2022/10/07 06:01:19;;;;;;;21.00;6.45;;;;;;;14.21;76.13;151222.73;1735848;81;20928;-67
2022/10/07 06:03:53;;;;;;;18.85;7.15;;;;;;;14.22;76.35;151226.59;1733151;81;21091;-68
2022/10/07 06:06:20;;;;;;;20.20;7.00;;;;;;;14.26;76.71;151237.05;1744752;81;21153;-59
2022/10/07 06:08:49;;;;;;;15.15;7.40;;;;;;;14.32;76.64;151252.66;1737071;80;21315;-59
2022/10/07 06:14:02;;;;;;;24.00;6.75;;;;;;;14.51;76.19;151299.50;1736352;81;21578;-63
2022/10/07 06:16:29;;;;;;;18.80;6.62;;;;;;;14.59;75.33;151319.03;1722420;81;21135;-59
2022/10/07 06:18:56;;;;;;;18.30;7.05;;;;;;;14.69;74.95;151345.03;1738953;81;22034;-59
2022/10/07 06:21:26;;;;;;;13.35;6.22;;;;;;;14.80;74.21;151372.41;1732419;81;21433;-57
2022/10/07 06:23:57;;;;;;;16.80;6.62;;;;;;;14.93;73.73;151403.67;1739248;81;22194;-58
2022/10/07 06:26:25;;;;;;;20.72;5.92;;;;;;;15.03;72.75;151429.69;1730507;81;21485;-57
2022/10/07 06:28:54;;;;;;;13.48;5.60;;;;;;;15.06;71.90;151437.48;1735334;81;21125;-58
2022/10/07 06:31:23;;;;;;;22.87;5.97;;;;;;;15.08;71.27;151441.42;1716972;81;22166;-58
2022/10/07 06:33:50;;;;;;;14.00;5.72;;;;;;;15.11;71.36;151450.50;1729244;81;21671;-58
2022/10/07 06:36:17;;;;;;;16.67;6.10;;;;;;;15.17;71.44;151466.16;1729069;81;21048;-63
2022/10/07 06:38:50;;;;;;;15.95;5.80;;;;;;;15.26;71.24;151488.30;1726248;81;21044;-63
2022/10/07 06:41:20;;;;;;;21.00;5.70;;;;;;;15.34;70.76;151507.78;1719268;81;21054;-62
2022/10/07 06:43:49;;;;;;;26.55;6.12;;;;;;;15.42;70.17;151528.66;1729502;81;21946;-63
2022/10/07 06:46:18;;;;;;;13.60;5.47;;;;;;;15.50;70.35;151546.86;1672981;81;21111;-63
2022/10/07 06:48:47;;;;;;;13.05;5.50;;;;;;;15.59;70.05;151570.33;1719248;81;21520;-63
2022/10/07 06:51:18;;;;;;;17.65;5.58;;;;;;;15.66;69.33;151588.55;1727398;81;21550;-63
2022/10/07 06:53:53;;;;;;;28.07;6.35;;;;;;;15.68;69.08;151593.75;1739522;81;21104;-63
2022/10/07 06:56:20;;;;;;;17.77;5.80;;;;;;;15.70;69.15;151598.95;1724904;81;21118;-62
2022/10/07 06:58:48;;;;;;;18.30;5.90;;;;;;;15.81;69.57;151625.03;1729578;81;21055;-63
2022/10/07 07:01:17;;;;;;;23.50;5.67;;;;;;;15.95;69.41;151660.25;1734672;80;21781;-64
2022/10/07 07:03:44;;;;;;;23.22;6.30;;;;;;;16.08;68.40;151692.81;1730431;81;21072;-63
2022/10/07 07:06:13;;;;;;;20.20;5.90;;;;;;;16.14;67.99;151708.42;1734475;80;20981;-63
2022/10/07 07:08:41;;;;;;;17.85;6.53;;;;;;;16.20;67.83;151724.03;1743151;81;21243;-63
2022/10/07 07:13:57;;;;;;;13.90;6.03;;;;;;;16.35;67.46;151760.53;1731210;81;21336;-63
2022/10/07 07:16:24;;;;;;;18.42;6.30;;;;;;;16.44;66.90;151783.97;1725216;81;21144;-63
2022/10/07 07:18:58;;;;;;;12.43;5.90;;;;;;;16.45;66.61;151787.91;1709252;82;21124;-63
2022/10/07 07:21:27;;;;;;;18.10;6.60;;;;;;;16.49;66.47;151797.03;1731696;81;21493;-63
2022/10/07 07:23:55;;;;;;;13.40;5.37;;;;;;;16.52;66.72;151804.84;1730783;81;21087;-63
2022/10/07 07:26:22;;;;;;;11.70;5.42;;;;;;;16.56;66.41;151813.94;1722127;81;21045;-63
2022/10/07 07:29:01;;;;;;;20.37;5.47;;;;;;;16.63;66.46;151830.89;1725420;81;21102;-64
2022/10/07 07:31:32;;;;;;;14.75;5.80;;;;;;;16.66;66.51;151838.70;1727110;81;21040;-64
2022/10/07 07:34:02;;;;;;;20.02;5.80;;;;;;;16.75;66.65;151862.19;1714723;81;21267;-64
2022/10/07 07:36:30;;;;;;;13.28;5.72;;;;;;;16.86;66.71;151890.84;1723492;81;21494;-65
2022/10/07 07:39:00;;;;;;;13.48;6.30;;;;;;;16.98;66.33;151919.53;1726172;81;21097;-61
2022/10/07 07:41:29;;;;;;;12.18;6.62;;;;;;;17.02;65.91;151931.33;1713381;81;20995;-65
2022/10/07 07:43:59;;;;;;;9.98;5.67;;;;;;;17.07;65.80;151941.75;1725242;81;21407;-63
2022/10/07 07:46:30;;;;;;;21.50;6.25;;;;;;;17.13;65.56;151958.70;1719744;81;21175;-63
2022/10/07 07:48:59;;;;;;;11.70;5.60;;;;;;;17.23;65.63;151982.16;1715848;81;21988;-63
2022/10/07 07:51:26;;;;;;;17.82;5.67;;;;;;;17.33;65.09;152008.20;1719094;80;21138;-62
2022/10/07 07:53:53;;;;;;;9.70;6.12;;;;;;;17.44;64.86;152036.91;1725645;81;21531;-63
2022/10/07 07:56:21;;;;;;;16.40;6.40;;;;;;;17.55;64.49;152064.30;1727621;81;21625;-63
2022/10/07 07:59:07;;;;;;;12.85;6.03;;;;;;;17.66;64.30;152091.69;1720749;81;21166;-64
2022/10/07 08:01:44;;;;;;;20.75;6.83;;;;;;;17.83;63.81;152133.42;1725177;81;20995;-63
2022/10/07 08:04:15;;;;;;;13.80;5.55;;;;;;;17.94;63.27;152162.09;1723806;81;21577;-63
2022/10/07 08:06:45;;;;;;;9.05;5.05;;;;;;;18.04;64.10;152188.25;1723345;81;21083;-64
2022/10/07 08:09:12;;;;;;;11.33;5.10;;;;;;;18.15;64.47;152214.31;1721735;81;21154;-64
2022/10/07 08:11:44;;;;;;;12.33;5.00;;;;;;;18.23;64.21;152235.17;1722403;81;21975;-63
2022/10/07 08:14:16;;;;;;;7.78;4.58;;;;;;;18.31;64.66;152256.08;1727574;81;21126;-63
2022/10/07 08:16:46;;;;;;;14.90;4.50;;;;;;;18.40;64.78;152276.94;1699767;81;21462;-63
2022/10/07 08:19:15;;;;;;;12.05;4.75;;;;;;;18.44;64.67;152287.36;1719384;81;37985;-63
2022/10/07 08:21:42;;;;;;;8.83;4.42;;;;;;;18.47;64.18;152295.23;1727516;81;21091;-63
2022/10/07 08:24:11;;;;;;;13.60;4.47;;;;;;;18.49;63.99;152300.44;1723540;80;21112;-65
2022/10/07 08:26:39;;;;;;;9.68;4.50;;;;;;;18.52;64.03;152306.94;1721306;81;21071;-63
2022/10/07 08:29:07;;;;;;;14.28;4.67;;;;;;;18.55;63.72;152316.09;1728908;81;21109;-67
2022/10/07 08:31:34;;;;;;;11.90;4.58;;;;;;;18.57;64.26;152321.31;1703357;82;21058;-64
2022/10/07 08:34:04;;;;;;;14.95;4.75;;;;;;;18.60;64.43;152329.13;1704953;81;21877;-65
2022/10/07 08:36:31;;;;;;;15.45;4.83;;;;;;;18.64;64.33;152336.95;1700386;82;21238;-62
2022/10/07 08:38:59;;;;;;;13.50;4.90;;;;;;;18.65;64.18;152339.56;1722305;81;21080;-65
2022/10/07 08:41:40;;;;;;;12.80;4.40;;;;;;;18.72;63.81;152357.86;1721584;81;21120;-62
2022/10/07 08:44:27;;;;;;;8.98;4.12;;;;;;;18.78;63.35;152373.50;1675802;84;21202;-64
2022/10/07 08:47:05;;;;;;;9.40;3.90;;;;;;;18.82;62.47;152383.94;1717212;81;21070;-64
2022/10/07 08:50:03;;;;;;;14.45;4.87;;;;;;;18.85;62.39;152390.48;1725816;81;21920;-69
2022/10/07 08:52:48;;;;;;;17.05;4.25;;;;;;;18.89;61.96;152402.19;1723394;81;21048;-64
2022/10/07 08:55:42;;;;;;;22.98;4.90;;;;;;;18.93;61.47;152410.06;1724488;81;21126;-67
2022/10/07 08:58:54;;;;;;;18.00;3.55;;;;;;;18.97;60.92;152420.50;1693898;81;21869;-63
2022/10/07 09:01:51;;;;;;;10.95;3.35;;;;;;;19.00;60.89;152428.38;1676263;83;21559;-66
2022/10/07 09:04:47;;;;;;;10.68;3.77;;;;;;;19.02;60.96;152433.59;1679616;83;21243;-65
2022/10/07 09:07:20;;;;;;;23.75;3.95;;;;;;;19.07;61.35;152446.63;1673428;83;21061;-65
2022/10/07 09:09:59;;;;;;;17.17;4.30;;;;;;;19.13;62.12;152462.33;1666417;84;21100;-59
2022/10/07 09:12:41;;;;;;;9.73;4.20;;;;;;;19.19;63.01;152476.64;1667036;82;21602;-59
2022/10/07 09:15:21;;;;;;;17.12;4.47;;;;;;;19.18;62.75;152475.38;1708079;81;21062;-65
2022/10/07 09:18:01;;;;;;;9.93;4.20;;;;;;;19.20;63.05;152477.97;1718239;81;21861;-64
2022/10/07 09:20:35;;;;;;;11.08;4.35;;;;;;;19.23;63.67;152487.13;1714544;81;21071;-59
2022/10/07 09:23:03;;;;;;;;;;;;;;;19.21;64.33;152481.86;1718156;81;21484;-59
2022/10/07 09:25:30;;;;;;;16.20;4.70;;;;;;;19.21;65.38;152480.59;1712760;81;20392;-58
2022/10/07 09:27:57;;;;;;;10.45;4.70;;;;;;;19.18;65.62;152475.38;1714193;81;21531;-64
2022/10/07 09:30:26;;;;;;;9.23;4.75;;;;;;;19.15;65.78;152467.55;1713876;81;21236;-64
2022/10/07 09:32:54;;;;;;;14.13;5.00;;;;;;;19.16;66.61;152468.83;1716613;81;20909;-63
2022/10/07 09:35:26;;;;;;;18.48;4.67;;;;;;;19.17;66.25;152472.77;1723553;81;21000;-65
2022/10/07 09:37:56;;;;;;;12.28;4.78;;;;;;;19.18;65.78;152475.38;1718216;81;20963;-60
2022/10/07 09:43:28;;;;;;;8.55;4.35;;;;;;;19.21;66.04;152480.59;1716089;81;21755;-64
2022/10/07 09:45:56;;;;;;;8.83;4.17;;;;;;;19.24;65.50;152488.41;1714036;81;21007;-59
2022/10/07 09:48:26;;;;;;;7.33;4.33;;;;;;;19.26;65.60;152493.63;1711749;81;21019;-59
2022/10/07 09:51:16;;;;;;;7.60;4.03;;;;;;;19.31;65.59;152508.00;1716259;81;21484;-59
2022/10/07 09:54:04;;;;;;;8.60;4.12;;;;;;;19.36;65.33;152519.77;1711946;81;21608;-65
2022/10/07 09:56:41;;;;;;;15.03;4.05;;;;;;;19.43;65.26;152538.03;1720463;81;22291;-65
2022/10/07 09:59:24;;;;;;;8.23;4.10;;;;;;;19.47;65.13;152548.47;1666278;83;21251;-64
2022/10/07 10:02:16;;;;;;;9.83;4.10;;;;;;;19.49;64.65;152551.06;1660296;84;21528;-63
2022/10/07 10:04:54;;;;;;;6.35;4.40;;;;;;;19.55;64.42;152566.72;1653986;84;21078;-58
2022/10/07 10:07:29;;;;;;;15.28;4.05;;;;;;;19.59;63.32;152577.20;1686711;83;21141;-58
2022/10/07 10:10:02;;;;;;;12.43;4.10;;;;;;;19.61;63.86;152582.42;1683042;83;21659;-59
2022/10/07 10:12:36;;;;;;;;;;;;;;;19.65;64.08;152591.53;1689297;83;21126;-58
2022/10/07 10:15:04;;;;;;;12.85;4.45;;;;;;;19.71;63.98;152607.23;1687751;83;20202;-59
2022/10/07 10:17:38;;;;;;;11.78;4.55;;;;;;;19.74;63.98;152616.34;1639894;83;20943;-59
2022/10/07 10:20:35;;;;;;;9.23;4.28;;;;;;;19.80;63.39;152630.72;1693615;84;21066;-59
2022/10/07 10:23:26;;;;;;;15.78;4.42;;;;;;;19.83;62.99;152637.28;1690853;83;21259;-58
2022/10/07 10:26:26;;;;;;;15.50;4.97;;;;;;;19.81;62.45;152632.06;1686388;84;21136;-63
2022/10/07 10:29:18;;;;;;;10.82;3.85;;;;;;;19.82;62.25;152635.94;1701456;82;21047;-63
2022/10/07 10:32:06;;;;;;;14.75;4.62;;;;;;;19.80;61.73;152630.72;1656416;84;21091;-64
2022/10/07 10:35:21;;;;;;;12.18;4.47;;;;;;;19.80;61.60;152629.44;1590503;87;21097;-59
2022/10/07 10:38:23;;;;;;;8.78;4.20;;;;;;;19.79;61.65;152626.84;1661873;84;21162;-64
2022/10/07 10:40:59;;;;;;;14.03;4.60;;;;;;;19.78;61.90;152624.17;1667908;84;21340;-59
2022/10/07 10:44:19;;;;;;;10.30;5.03;;;;;;;19.76;62.26;152621.56;1664488;84;21504;-65
2022/10/07 10:46:57;;;;;;;14.38;4.70;;;;;;;19.72;62.30;152611.12;1693405;82;21184;-64
2022/10/07 10:49:46;;;;;;;10.03;4.55;;;;;;;19.71;62.79;152608.52;1686403;82;21094;-65
2022/10/07 10:52:34;;;;;;;7.45;4.60;;;;;;;19.73;63.18;152613.73;1691807;82;21186;-64
2022/10/07 10:55:16;;;;;;;12.82;4.25;;;;;;;19.74;62.76;152616.34;1660963;84;21117;-64
2022/10/07 10:58:14;;;;;;;9.25;4.47;;;;;;;19.76;62.25;152620.28;1633778;86;21131;-64
2022/10/07 11:01:11;;;;;;;9.85;4.30;;;;;;;19.75;62.07;152618.95;1631692;86;21071;-65
2022/10/07 11:03:57;;;;;;;9.85;4.67;;;;;;;19.74;62.01;152616.34;1630609;86;21128;-64
2022/10/07 11:06:27;;;;;;;8.03;4.15;;;;;;;19.73;62.01;152613.73;1675723;83;21624;-63
2022/10/07 11:08:54;;;;;;;12.37;4.25;;;;;;;19.73;61.17;152613.73;1671299;85;21094;-65
2022/10/07 11:11:21;;;;;;;11.10;4.03;;;;;;;19.72;61.20;152611.12;1678384;83;21071;-64
2022/10/07 11:14:08;;;;;;;6.47;4.50;;;;;;;19.74;61.18;152616.34;1678164;83;21108;-64
2022/10/07 11:16:46;;;;;;;9.83;4.22;;;;;;;19.75;61.16;152617.67;1675737;84;21102;-63
2022/10/07 11:19:25;;;;;;;4.92;4.12;;;;;;;19.74;61.41;152616.34;1680697;83;21289;-64
2022/10/07 11:21:52;;;;;;;8.03;4.42;;;;;;;19.73;61.65;152613.73;1678691;83;21086;-64
2022/10/07 11:24:27;;;;;;;11.18;4.20;;;;;;;19.72;61.57;152609.84;1659805;84;21063;-64
2022/10/07 11:27:18;;;;;;;6.97;4.55;;;;;;;19.72;61.60;152611.12;1681372;83;22185;-64
2022/10/07 11:30:07;;;;;;;8.55;4.12;;;;;;;19.76;61.27;152621.56;1662902;84;21135;-64
2022/10/07 11:33:09;;;;;;;8.73;4.60;;;;;;;19.80;61.29;152629.44;1681571;83;22179;-65
2022/10/07 11:35:42;;;;;;;7.03;4.42;;;;;;;19.84;61.48;152639.87;1683825;83;21090;-65
2022/10/07 11:38:14;;;;;;;9.53;4.25;;;;;;;19.87;61.38;152648.98;1675141;83;21033;-64
2022/10/07 11:40:58;;;;;;;6.35;4.30;;;;;;;19.88;61.11;152650.31;1680650;83;21260;-64
2022/10/07 11:43:32;;;;;;;9.48;4.53;;;;;;;19.85;61.46;152643.77;1685168;83;21453;-64
2022/10/07 11:46:22;;;;;;;9.80;4.37;;;;;;;19.84;61.74;152639.87;1681215;83;21178;-64
2022/10/07 11:49:06;;;;;;;6.10;4.53;;;;;;;19.83;62.09;152638.56;1683514;85;21056;-65
2022/10/07 11:51:53;;;;;;;6.80;4.22;;;;;;;19.81;62.44;152633.33;1676393;84;21121;-65
2022/10/07 11:54:21;;;;;;;12.55;4.35;;;;;;;19.79;62.73;152628.11;1683358;83;21511;-64
2022/10/07 11:56:50;;;;;;;10.15;4.58;;;;;;;19.76;63.24;152621.56;1689671;83;22135;-64
2022/10/07 11:59:45;;;;;;;5.75;4.30;;;;;;;19.76;63.73;152621.56;1692381;82;21099;-65
2022/10/07 12:02:37;;;;;;;7.35;4.15;;;;;;;19.76;64.06;152621.56;1703191;82;21097;-64